Weather at Amos Airport

Public forecast

Using degrees Fahrenheit for public forecast. Weather courtesy of forecast.io.

Closest aviation weather report (METAR) to Amos Airport

Closest report is Batesville Regional Airport, 12.4 nm (23.0 km) NW. Retrieved 2020/09/25 01:56 UTC (45 minutes ago):

KBVX 250156Z AUTO 03003KT 10SM OVC022 18/17 A2994 RMK AO2 SLP139 T01780167

Closest aviation forecast (TAF) to Amos Airport

Closest forecast is Jonesboro Municipal Airport, 40.7 nm (75.4 km) ENE. Retrieved 2020-09-25 00:24 UTC (2 hours ago):

TAF KJBR 242323Z 2500/2524 03008KT P6SM OVC015 FM250200 36003KT P6SM SCT015 OVC025 FM250900 VRB03KT 3SM BR OVC007 FM251400 35004KT P6SM BKN015 OVC040 FM251700 VRB04KT P6SM BKN040 FM252000 VRB04KT P6SM FEW040